Time;durP1;ratioP1;P1;durP2;ratioP2;P2;SDS_P1;SDS_P2;PMS_P1;PMS_P2;Temp;Humidity;BMP_temperature;BMP_pressure;BME280_temperature;BME280_humidity;BME280_pressure;Samples;Min_cycle;Max_cycle;Signal;HPM_P1;HPM_P2
2023/10/26 00:00:32;;;;;;;60.95;31.35;;;;;;;7.73;100.00;99572.84;4994117;28;20046;-58
2023/10/26 00:02:58;;;;;;;54.53;31.10;;;;;;;7.69;100.00;99578.25;4993649;28;20034;-58
2023/10/26 00:05:24;;;;;;;58.40;31.55;;;;;;;7.61;100.00;99570.72;4993508;28;20084;-58
2023/10/26 00:07:49;;;;;;;51.75;31.27;;;;;;;7.40;100.00;99549.78;4992701;28;20088;-57
2023/10/26 00:10:15;;;;;;;66.30;32.70;;;;;;;7.51;100.00;99579.00;4991399;28;20074;-60
2023/10/26 00:12:40;;;;;;;65.00;32.42;;;;;;;7.10;100.00;99509.97;4991803;28;20497;-56
2023/10/26 00:15:06;;;;;;;54.40;30.88;;;;;;;6.99;100.00;99499.94;4992142;28;20048;-58
2023/10/26 00:17:31;;;;;;;60.63;31.35;;;;;;;6.98;100.00;99505.19;5009086;28;20129;-59
2023/10/26 00:19:57;;;;;;;58.10;32.70;;;;;;;7.41;100.00;99588.16;4993120;28;20045;-59
2023/10/26 00:22:22;;;;;;;56.63;31.58;;;;;;;7.39;100.00;99588.19;4992178;28;20065;-59
2023/10/26 00:24:49;;;;;;;63.05;32.40;;;;;;;6.96;100.00;99513.13;4992357;28;20034;-59
2023/10/26 00:27:14;;;;;;;58.40;32.03;;;;;;;7.23;100.00;99571.38;4993349;28;20482;-58
2023/10/26 00:29:40;;;;;;;62.30;31.85;;;;;;;6.94;100.00;99533.25;5008110;28;20049;-57
2023/10/26 00:32:06;;;;;;;65.35;33.55;;;;;;;7.21;100.00;99586.28;4993290;28;20456;-61
2023/10/26 00:34:32;;;;;;;56.08;30.98;;;;;;;7.19;100.00;99575.88;4991891;28;20474;-62
2023/10/26 00:36:58;;;;;;;55.78;31.00;;;;;;;6.87;100.00;99523.06;4993390;28;20045;-57
2023/10/26 00:39:23;;;;;;;75.28;33.53;;;;;;;6.85;100.00;99514.44;5007970;28;20035;-59
2023/10/26 00:41:52;;;;;;;60.10;32.53;;;;;;;6.82;100.00;99511.94;4991822;28;20042;-54
2023/10/26 00:44:19;;;;;;;56.95;31.33;;;;;;;7.11;100.00;99566.63;4991986;28;20132;-58
2023/10/26 00:46:44;;;;;;;61.22;32.83;;;;;;;7.10;100.00;99576.22;4991576;28;20137;-53
2023/10/26 00:49:12;;;;;;;78.68;36.58;;;;;;;7.14;100.00;99600.53;5008143;28;20125;-51
2023/10/26 00:51:38;;;;;;;61.92;33.47;;;;;;;6.70;100.00;99527.19;4991902;28;20470;-59
2023/10/26 00:54:05;;;;;;;63.53;32.22;;;;;;;7.09;100.00;99616.38;4992643;28;20045;-61
2023/10/26 00:56:31;;;;;;;63.00;32.58;;;;;;;7.04;100.00;99596.53;5007447;28;20038;-58
2023/10/26 00:58:57;;;;;;;68.55;34.38;;;;;;;7.06;100.00;99595.59;5007982;28;20057;-58
2023/10/26 01:01:22;;;;;;;65.88;33.65;;;;;;;7.03;100.00;99600.94;4990674;28;20034;-57
2023/10/26 01:03:49;;;;;;;59.75;31.13;;;;;;;6.62;100.00;99536.25;4991466;28;20039;-57
2023/10/26 01:06:14;;;;;;;56.20;31.70;;;;;;;6.73;100.00;99557.59;5007506;28;20038;-57
2023/10/26 01:08:39;;;;;;;61.83;33.03;;;;;;;6.94;100.00;99605.66;4992676;28;20038;-58
2023/10/26 01:11:05;;;;;;;63.08;33.22;;;;;;;6.49;100.00;99532.34;4991518;28;20039;-58
2023/10/26 01:13:33;;;;;;;63.78;31.58;;;;;;;6.86;100.00;99605.91;4992906;28;20082;-58
2023/10/26 01:15:59;;;;;;;60.92;31.40;;;;;;;6.49;100.00;99535.81;4991168;28;20042;-58
2023/10/26 01:18:24;;;;;;;69.85;33.75;;;;;;;6.80;100.00;99588.69;5007664;28;20057;-58
2023/10/26 01:20:49;;;;;;;69.28;33.28;;;;;;;6.77;100.00;99583.56;4991314;28;20038;-58
2023/10/26 01:23:15;;;;;;;80.22;34.58;;;;;;;6.42;100.00;99555.22;4992172;28;20037;-58
2023/10/26 01:25:40;;;;;;;65.70;33.65;;;;;;;6.35;100.00;99513.72;4992723;28;20042;-58
2023/10/26 01:28:07;;;;;;;66.80;33.03;;;;;;;6.33;100.00;99518.16;4992781;28;20100;-58
2023/10/26 01:30:34;;;;;;;65.78;32.35;;;;;;;6.63;100.00;99590.22;4991769;28;20533;-58
2023/10/26 01:32:59;;;;;;;78.90;32.42;;;;;;;6.65;100.00;99598.88;4992757;28;20111;-58
2023/10/26 01:35:24;;;;;;;54.35;30.15;;;;;;;6.64;100.00;99605.00;4992620;28;20490;-58
2023/10/26 01:37:50;;;;;;;62.78;31.38;;;;;;;6.60;100.00;99593.78;4992312;28;20030;-58
2023/10/26 01:40:15;;;;;;;52.63;29.15;;;;;;;6.55;100.00;99585.28;4992229;28;20041;-58
2023/10/26 01:42:42;;;;;;;69.28;31.02;;;;;;;6.52;100.00;99589.75;4992203;28;20038;-58
2023/10/26 01:45:08;;;;;;;53.83;30.05;;;;;;;6.35;100.00;99564.22;4990813;28;20038;-58
2023/10/26 01:47:33;;;;;;;63.00;31.42;;;;;;;6.42;100.00;99581.38;4991477;28;20576;-58
2023/10/26 01:49:59;;;;;;;65.00;32.75;;;;;;;6.28;100.00;99556.63;4994203;28;20041;-58
2023/10/26 01:52:25;;;;;;;72.40;32.65;;;;;;;6.05;100.00;99529.56;4995810;28;20081;-59
2023/10/26 01:54:50;;;;;;;70.43;34.10;;;;;;;6.36;100.00;99578.16;4996462;28;20061;-58
2023/10/26 01:57:16;;;;;;;67.25;33.88;;;;;;;6.31;100.00;99570.44;4996394;28;20394;-58
2023/10/26 01:59:42;;;;;;;88.47;36.05;;;;;;;6.39;100.00;99578.88;4996214;28;20470;-58
2023/10/26 02:02:07;;;;;;;64.47;33.88;;;;;;;6.39;100.00;99578.88;5011010;28;20054;-58
2023/10/26 02:04:32;;;;;;;63.60;31.77;;;;;;;6.38;100.00;99582.41;4995050;28;20428;-58
2023/10/26 02:06:58;;;;;;;69.05;33.20;;;;;;;6.11;100.00;99534.56;4996201;28;20486;-58
2023/10/26 02:09:23;;;;;;;62.35;33.50;;;;;;;6.36;100.00;99573.78;4995845;28;20161;-58
2023/10/26 02:11:48;;;;;;;62.10;32.30;;;;;;;6.32;100.00;99569.56;5011093;28;20462;-58
2023/10/26 02:14:14;;;;;;;61.90;33.05;;;;;;;6.44;100.00;99590.03;4995698;28;20066;-58
2023/10/26 02:16:39;;;;;;;68.47;33.30;;;;;;;6.46;100.00;99582.97;4995842;28;20045;-58
2023/10/26 02:19:04;;;;;;;70.40;32.55;;;;;;;6.04;100.00;99504.34;4995843;28;20132;-58
2023/10/26 02:21:30;;;;;;;56.92;31.58;;;;;;;6.44;100.00;99563.91;4994454;28;20074;-58
2023/10/26 02:23:55;;;;;;;62.25;31.58;;;;;;;6.41;100.00;99564.00;4995556;28;20038;-58
2023/10/26 02:26:20;;;;;;;61.80;30.33;;;;;;;6.06;100.00;99510.38;4995782;28;20038;-58
2023/10/26 02:28:46;;;;;;;57.83;31.67;;;;;;;6.42;100.00;99577.94;4996070;28;20042;-58
2023/10/26 02:31:11;;;;;;;79.85;35.05;;;;;;;6.01;100.00;99490.56;4995163;28;20061;-58
2023/10/26 02:33:36;;;;;;;61.40;32.17;;;;;;;6.40;100.00;99569.28;4994619;28;20390;-58
2023/10/26 02:36:04;;;;;;;66.80;32.25;;;;;;;6.00;100.00;99501.91;4994229;28;20445;-58
2023/10/26 02:38:29;;;;;;;70.50;33.05;;;;;;;5.99;100.00;99502.78;4995127;28;20045;-58
2023/10/26 02:41:01;;;;;;;56.63;31.17;;;;;;;5.96;100.00;99502.91;4995447;28;20402;-58
2023/10/26 02:43:27;;;;;;;65.63;32.33;;;;;;;6.42;100.00;99584.00;4995318;28;20038;-58
2023/10/26 02:46:00;;;;;;;63.53;32.03;;;;;;;6.45;100.00;99585.66;4994942;28;20062;-58
2023/10/26 02:48:25;;;;;;;57.50;30.95;;;;;;;6.48;100.00;99582.94;4994086;28;20084;-58
2023/10/26 02:50:50;;;;;;;60.28;31.50;;;;;;;6.47;100.00;99578.63;4993688;28;20034;-57
2023/10/26 02:53:16;;;;;;;67.80;32.50;;;;;;;5.76;100.00;99453.09;4993614;28;20076;-57
2023/10/26 02:55:41;;;;;;;68.32;33.13;;;;;;;6.46;100.00;99576.91;4995181;28;20034;-57
2023/10/26 02:58:06;;;;;;;58.90;31.70;;;;;;;6.14;100.00;99521.41;5010223;28;20069;-58
2023/10/26 03:00:32;;;;;;;70.88;32.13;;;;;;;6.40;100.00;99566.66;5009721;28;20056;-58
2023/10/26 03:02:57;;;;;;;78.03;33.40;;;;;;;5.97;100.00;99497.63;4994771;28;20497;-57
2023/10/26 03:05:22;;;;;;;57.58;30.90;;;;;;;6.05;100.00;99518.25;4994987;28;20092;-57
2023/10/26 03:07:48;;;;;;;66.20;32.53;;;;;;;6.30;100.00;99554.84;4994906;28;20552;-58
2023/10/26 03:10:13;;;;;;;72.45;33.13;;;;;;;6.27;100.00;99553.19;4992851;28;20042;-58
2023/10/26 03:12:38;;;;;;;66.05;32.65;;;;;;;6.38;100.00;99568.47;4995156;28;20046;-58
2023/10/26 03:15:04;;;;;;;70.03;33.28;;;;;;;6.00;100.00;99510.59;4994733;28;20474;-58
2023/10/26 03:17:29;;;;;;;79.57;35.20;;;;;;;6.33;100.00;99562.56;4994768;28;20485;-58
2023/10/26 03:19:55;;;;;;;76.85;35.33;;;;;;;6.23;100.00;99548.97;4994392;28;20465;-58
2023/10/26 03:22:20;;;;;;;65.10;31.85;;;;;;;6.26;100.00;99546.25;4994287;28;20038;-57
2023/10/26 03:24:46;;;;;;;58.03;31.52;;;;;;;6.27;100.00;99545.34;4992555;28;20038;-58
2023/10/26 03:27:11;;;;;;;58.72;30.70;;;;;;;6.17;100.00;99538.72;4993315;28;20482;-58
2023/10/26 03:29:36;;;;;;;67.25;32.45;;;;;;;6.25;100.00;99556.78;4994721;28;20047;-58
2023/10/26 03:32:02;;;;;;;58.67;31.25;;;;;;;5.80;100.00;99488.66;4994139;28;20038;-60
2023/10/26 03:34:28;;;;;;;72.88;33.80;;;;;;;6.16;100.00;99556.16;4994437;28;20082;-59
2023/10/26 03:36:53;;;;;;;61.70;30.23;;;;;;;6.14;100.00;99559.75;4994374;28;20035;-57
2023/10/26 03:39:18;;;;;;;56.38;29.98;;;;;;;5.70;100.00;99480.28;4993132;28;20406;-58
2023/10/26 03:41:43;;;;;;;57.65;29.80;;;;;;;6.13;100.00;99558.88;4992983;28;20038;-59
2023/10/26 03:44:09;;;;;;;64.18;31.75;;;;;;;5.74;100.00;99486.25;4994307;28;20088;-58
2023/10/26 03:46:34;;;;;;;81.85;32.03;;;;;;;6.13;100.00;99548.44;4994209;28;20054;-57
2023/10/26 03:48:59;;;;;;;65.47;30.45;;;;;;;6.08;100.00;99532.06;4994183;28;20474;-57
2023/10/26 03:51:25;;;;;;;59.17;30.48;;;;;;;6.19;100.00;99548.22;4993886;28;20470;-59
2023/10/26 03:53:50;;;;;;;112.35;34.22;;;;;;;6.19;100.00;99536.91;4994223;28;20394;-59
2023/10/26 03:56:16;;;;;;;95.28;33.53;;;;;;;6.16;100.00;99537.00;4991718;28;20467;-57
2023/10/26 03:58:41;;;;;;;60.15;29.38;;;;;;;6.17;100.00;99536.97;4994024;28;20034;-58
2023/10/26 04:01:06;;;;;;;56.80;30.08;;;;;;;6.16;100.00;99535.25;4993931;28;20375;-58
2023/10/26 04:03:32;;;;;;;78.40;33.45;;;;;;;6.16;100.00;99534.41;4993816;28;20433;-57
2023/10/26 04:05:57;;;;;;;63.88;29.45;;;;;;;5.94;100.00;99482.06;5009201;28;20486;-57
2023/10/26 04:08:22;;;;;;;77.30;31.70;;;;;;;5.92;100.00;99486.50;4993940;28;20464;-57
2023/10/26 04:10:48;;;;;;;54.88;28.98;;;;;;;5.86;100.00;99457.13;4993809;28;20558;-58
2023/10/26 04:13:13;;;;;;;48.67;28.33;;;;;;;6.27;100.00;99540.13;4992131;28;20525;-58
2023/10/26 04:15:38;;;;;;;49.65;27.58;;;;;;;6.17;100.00;99512.59;4993570;28;20085;-58
2023/10/26 04:18:05;;;;;;;56.45;27.42;;;;;;;6.24;100.00;99529.78;4993600;28;20061;-57
2023/10/26 04:20:31;;;;;;;64.82;29.42;;;;;;;5.81;100.00;99457.25;4993436;28;20035;-58
2023/10/26 04:22:56;;;;;;;75.57;31.75;;;;;;;6.24;100.00;99516.72;4993253;28;20034;-57
2023/10/26 04:25:21;;;;;;;58.78;29.00;;;;;;;6.25;100.00;99517.56;4993273;28;20031;-58
2023/10/26 04:27:47;;;;;;;98.90;33.42;;;;;;;5.93;100.00;99454.25;4992197;28;20030;-58
2023/10/26 04:30:12;;;;;;;102.32;31.80;;;;;;;6.30;100.00;99516.50;4993395;28;20034;-57
2023/10/26 04:32:41;;;;;;;102.88;33.40;;;;;;;5.58;100.00;99400.63;4993245;28;20498;-57
2023/10/26 04:35:07;;;;;;;93.80;32.25;;;;;;;6.34;100.00;99523.31;4992836;28;20040;-57
2023/10/26 04:37:32;;;;;;;72.47;28.30;;;;;;;6.34;100.00;99517.22;4993631;28;20482;-58
2023/10/26 04:39:58;;;;;;;119.00;33.78;;;;;;;6.25;100.00;99512.34;4991970;28;20148;-59
2023/10/26 04:42:23;;;;;;;152.52;37.55;;;;;;;5.92;100.00;99459.53;4991975;28;20096;-58
2023/10/26 04:44:49;;;;;;;92.47;31.45;;;;;;;6.29;100.00;99519.16;4992023;28;20449;-58
2023/10/26 04:47:14;;;;;;;238.18;42.83;;;;;;;6.18;100.00;99502.13;4993046;28;20221;-57
2023/10/26 04:49:40;;;;;;;212.82;40.97;;;;;;;6.26;100.00;99514.91;4992918;28;20049;-58
2023/10/26 04:52:05;;;;;;;258.30;42.95;;;;;;;5.85;100.00;99443.22;4992945;28;20070;-58
2023/10/26 04:54:30;;;;;;;138.68;34.97;;;;;;;6.23;100.00;99508.03;4993114;28;20039;-58
2023/10/26 04:56:56;;;;;;;108.38;31.73;;;;;;;6.18;100.00;99512.56;4993225;28;20041;-58
2023/10/26 04:59:21;;;;;;;181.95;37.28;;;;;;;6.15;100.00;99499.59;4992946;28;20474;-58
2023/10/26 05:01:47;;;;;;;153.70;33.10;;;;;;;5.85;100.00;99448.44;4991078;28;20092;-58
2023/10/26 05:04:13;;;;;;;215.40;38.78;;;;;;;6.25;100.00;99505.34;4992887;28;20034;-57
2023/10/26 05:06:38;;;;;;;300.58;45.10;;;;;;;5.84;100.00;99441.47;4992879;28;20038;-57
2023/10/26 05:09:05;;;;;;;202.05;37.03;;;;;;;6.25;100.00;99507.94;4993072;28;20034;-58
2023/10/26 05:11:31;;;;;;;259.75;41.50;;;;;;;6.24;100.00;99532.41;4992717;28;20034;-57
2023/10/26 05:13:56;;;;;;;172.98;35.17;;;;;;;6.23;100.00;99504.56;5007469;28;20038;-58
2023/10/26 05:16:21;;;;;;;216.90;39.42;;;;;;;6.21;100.00;99515.06;4991233;28;20030;-58
2023/10/26 05:18:46;;;;;;;147.40;34.72;;;;;;;6.14;100.00;99499.66;4991340;28;20049;-58
2023/10/26 05:21:12;;;;;;;243.68;42.15;;;;;;;6.23;100.00;99521.09;4992308;28;20042;-58
2023/10/26 05:23:38;;;;;;;108.60;32.25;;;;;;;6.24;100.00;99524.56;4993930;28;20034;-59
2023/10/26 05:26:03;;;;;;;140.40;33.60;;;;;;;6.25;100.00;99518.41;4995925;28;20040;-58
2023/10/26 05:28:29;;;;;;;225.65;39.92;;;;;;;6.27;100.00;99520.97;4996738;28;20044;-59
2023/10/26 05:30:54;;;;;;;307.92;48.40;;;;;;;6.28;100.00;99509.59;4996869;28;20034;-59
2023/10/26 05:33:19;;;;;;;303.20;46.58;;;;;;;6.33;100.00;99520.75;4996373;28;20038;-58
2023/10/26 05:35:45;;;;;;;243.93;41.17;;;;;;;6.35;100.00;99511.09;4995285;28;20030;-58
2023/10/26 05:38:10;;;;;;;182.80;38.50;;;;;;;6.37;100.00;99520.56;4996570;28;20034;-58
2023/10/26 05:40:36;;;;;;;253.32;40.67;;;;;;;6.36;100.00;99505.81;5011728;28;20030;-58
2023/10/26 05:43:02;;;;;;;144.43;30.85;;;;;;;6.37;100.00;99507.50;4996582;28;20058;-58
2023/10/26 05:45:29;;;;;;;227.88;40.65;;;;;;;6.36;100.00;99498.00;5011068;28;20172;-58
2023/10/26 05:47:54;;;;;;;262.42;41.88;;;;;;;6.34;100.00;99494.56;4996247;28;20512;-58
2023/10/26 05:50:20;;;;;;;149.85;30.80;;;;;;;6.03;100.00;99442.56;5011233;28;20042;-57
2023/10/26 05:52:46;;;;;;;185.48;35.03;;;;;;;5.90;100.00;99422.16;4995344;28;20034;-58
2023/10/26 05:55:11;;;;;;;273.40;44.08;;;;;;;6.38;100.00;99501.38;4995888;28;20049;-58
2023/10/26 05:57:37;;;;;;;148.23;33.72;;;;;;;6.17;100.00;99453.38;4994309;28;20089;-58
2023/10/26 06:00:06;;;;;;;163.70;34.40;;;;;;;6.44;100.00;99495.94;4995085;28;20429;-58
2023/10/26 06:02:32;;;;;;;183.10;35.65;;;;;;;6.10;100.00;99433.59;4995572;28;20038;-58
2023/10/26 06:04:57;;;;;;;206.70;37.58;;;;;;;6.10;100.00;99428.38;4995279;28;20057;-58
2023/10/26 06:07:23;;;;;;;333.63;48.10;;;;;;;6.62;100.00;99491.78;4993876;28;20164;-58
2023/10/26 06:09:50;;;;;;;217.13;35.83;;;;;;;6.63;100.00;99475.16;4994440;28;20034;-56
2023/10/26 06:12:15;;;;;;;392.10;48.30;;;;;;;6.68;100.00;99473.25;4995330;28;20038;-56
2023/10/26 06:14:40;;;;;;;283.67;37.95;;;;;;;6.78;100.00;99472.84;4995630;28;20249;-57
2023/10/26 06:17:06;;;;;;;296.25;38.60;;;;;;;6.82;100.00;99467.47;4995764;28;20126;-57
2023/10/26 06:19:31;;;;;;;181.95;34.08;;;;;;;6.75;100.00;99452.03;4995302;28;20180;-58
2023/10/26 06:21:58;;;;;;;219.00;36.53;;;;;;;6.89;100.00;99480.25;4995578;28;20046;-54
2023/10/26 06:24:23;;;;;;;390.90;47.88;;;;;;;6.92;100.00;99487.16;4994530;28;20092;-57
2023/10/26 06:26:49;;;;;;;224.77;37.05;;;;;;;6.79;100.00;99448.41;4994401;28;20091;-57
2023/10/26 06:29:14;;;;;;;274.83;42.90;;;;;;;6.98;100.00;99481.66;5010466;28;20146;-56
2023/10/26 06:31:39;;;;;;;439.65;53.80;;;;;;;6.74;100.00;99434.63;4995468;28;20049;-54
2023/10/26 06:34:05;;;;;;;207.30;38.72;;;;;;;7.07;100.00;99492.63;4995384;28;20141;-56
2023/10/26 06:36:30;;;;;;;262.17;42.03;;;;;;;7.12;100.00;99500.31;4994850;28;20038;-56
2023/10/26 06:38:56;;;;;;;140.75;32.45;;;;;;;7.15;100.00;99503.63;4995451;28;20045;-59
2023/10/26 06:41:21;;;;;;;181.57;34.00;;;;;;;6.82;100.00;99438.72;4995197;28;20038;-54
2023/10/26 06:43:47;;;;;;;172.70;35.75;;;;;;;7.19;100.00;99507.84;4994059;28;20049;-55
2023/10/26 06:46:12;;;;;;;148.90;31.45;;;;;;;6.95;100.00;99455.63;4995111;28;20062;-59
2023/10/26 06:48:37;;;;;;;371.08;48.13;;;;;;;7.29;100.00;99503.97;4995041;28;20073;-59
2023/10/26 06:51:04;;;;;;;265.27;38.75;;;;;;;6.87;100.00;99421.06;4994838;28;20030;-57
2023/10/26 06:53:29;;;;;;;251.77;37.33;;;;;;;7.36;100.00;99500.16;4995269;28;20030;-56
2023/10/26 06:55:55;;;;;;;166.10;34.22;;;;;;;7.42;100.00;99506.91;4995069;28;20488;-58
2023/10/26 06:58:21;;;;;;;163.15;33.90;;;;;;;7.47;100.00;99510.22;4993641;28;20042;-58
2023/10/26 07:00:46;;;;;;;233.20;40.13;;;;;;;7.11;100.00;99433.19;5009081;28;20030;-60
2023/10/26 07:03:12;;;;;;;388.48;50.88;;;;;;;7.31;100.00;99469.84;4994919;28;20050;-59
2023/10/26 07:05:37;;;;;;;238.00;40.72;;;;;;;7.57;100.00;99502.81;5010055;28;20041;-59
2023/10/26 07:08:03;;;;;;;297.08;44.72;;;;;;;7.23;100.00;99433.53;4994929;28;20488;-58
2023/10/26 07:10:28;;;;;;;187.73;37.50;;;;;;;7.32;100.00;99432.31;4994957;28;20042;-57
2023/10/26 07:12:54;;;;;;;280.60;45.45;;;;;;;7.67;100.00;99485.81;4994527;28;20097;-57
2023/10/26 07:15:19;;;;;;;201.88;41.38;;;;;;;7.85;100.00;99517.31;4992113;28;20049;-56
2023/10/26 07:17:45;;;;;;;297.15;47.17;;;;;;;7.84;100.00;99489.44;4973818;28;20041;-58
2023/10/26 07:20:12;;;;;;;277.42;46.28;;;;;;;7.77;100.00;99474.03;4990152;28;20061;-56
2023/10/26 07:22:39;;;;;;;321.50;46.95;;;;;;;8.01;100.00;99496.56;4989972;28;20027;-57
2023/10/26 07:25:05;;;;;;;406.75;52.75;;;;;;;7.80;100.00;99447.69;4974857;28;20537;-58
2023/10/26 07:27:30;;;;;;;327.42;47.00;;;;;;;7.75;100.00;99431.34;4975091;28;20030;-55
2023/10/26 07:29:56;;;;;;;347.27;49.80;;;;;;;8.24;100.00;99506.03;4974538;28;20081;-58
2023/10/26 07:32:22;;;;;;;490.42;58.30;;;;;;;7.84;100.00;99426.56;4989617;28;20093;-57
2023/10/26 07:34:47;;;;;;;271.80;47.53;;;;;;;8.35;100.00;99509.06;4986390;28;20410;-54
2023/10/26 07:37:12;;;;;;;307.65;48.50;;;;;;;8.30;100.00;99500.56;4994323;28;20069;-59
2023/10/26 07:39:38;;;;;;;335.73;49.75;;;;;;;8.41;100.00;99507.03;5009115;28;20042;-58
2023/10/26 07:42:04;;;;;;;400.83;54.53;;;;;;;8.09;100.00;99442.03;5008750;28;20034;-56
2023/10/26 07:44:31;;;;;;;471.40;56.90;;;;;;;8.17;100.00;99455.63;4994055;28;20050;-55
2023/10/26 07:46:57;;;;;;;269.63;44.88;;;;;;;8.23;100.00;99460.63;4991568;28;20054;-56
2023/10/26 07:49:22;;;;;;;335.17;47.53;;;;;;;8.48;100.00;99494.50;4993845;28;20038;-57
2023/10/26 07:51:49;;;;;;;276.40;45.53;;;;;;;8.50;100.00;99484.78;4992650;28;20042;-56
2023/10/26 07:54:15;;;;;;;293.02;45.63;;;;;;;8.38;100.00;99457.34;4992781;28;20074;-53
2023/10/26 07:56:40;;;;;;;332.92;48.33;;;;;;;8.68;100.00;99504.06;4993964;28;20065;-54
2023/10/26 07:59:05;;;;;;;167.48;36.88;;;;;;;8.29;100.00;99431.53;4993819;28;20034;-57
2023/10/26 08:01:31;;;;;;;336.60;48.33;;;;;;;8.56;100.00;99481.03;5008943;28;20049;-56
2023/10/26 08:03:57;;;;;;;190.20;39.53;;;;;;;8.78;100.00;99508.00;4993935;28;20070;-54
2023/10/26 08:06:23;;;;;;;292.50;44.03;;;;;;;8.56;100.00;99450.41;4992656;28;20058;-53
2023/10/26 08:08:51;;;;;;;229.93;41.05;;;;;;;8.65;100.00;99457.84;4991533;28;20092;-54
2023/10/26 08:11:17;;;;;;;239.70;43.35;;;;;;;8.88;100.00;99475.16;4993493;28;20129;-56
2023/10/26 08:13:43;;;;;;;365.95;48.38;;;;;;;8.61;100.00;99426.59;4975815;28;20073;-57
2023/10/26 08:16:08;;;;;;;248.57;41.42;;;;;;;9.02;100.00;99498.97;4993381;28;20064;-56
2023/10/26 08:18:35;;;;;;;203.75;39.92;;;;;;;8.84;100.00;99486.72;4993414;28;20415;-57
2023/10/26 08:21:03;;;;;;;338.83;48.40;;;;;;;8.66;100.00;99435.09;4993638;28;20042;-57
2023/10/26 08:23:29;;;;;;;220.85;42.17;;;;;;;8.69;100.00;99427.09;4992064;28;20121;-56
2023/10/26 08:25:55;;;;;;;267.92;43.78;;;;;;;9.07;100.00;99483.00;4993195;28;20113;-57
2023/10/26 08:28:21;;;;;;;151.20;37.85;;;;;;;9.02;100.00;99478.81;4993183;28;20470;-54
2023/10/26 08:30:46;;;;;;;393.17;52.65;;;;;;;8.71;100.00;99433.97;4991819;28;20036;-57
2023/10/26 08:33:11;;;;;;;388.35;55.70;;;;;;;9.11;100.00;99497.69;4993284;28;20136;-58
2023/10/26 08:35:39;;;;;;;200.90;39.60;;;;;;;9.15;100.00;99510.59;4993332;28;20035;-54
2023/10/26 08:38:04;;;;;;;215.05;41.80;;;;;;;9.15;100.00;99486.97;4993077;28;20516;-54
2023/10/26 08:40:30;;;;;;;301.33;46.40;;;;;;;8.81;100.00;99411.63;4991988;28;20125;-53
2023/10/26 08:42:55;;;;;;;145.63;36.38;;;;;;;9.11;100.00;99438.16;4992988;28;20049;-57
2023/10/26 08:45:23;;;;;;;159.95;36.33;;;;;;;9.49;100.00;99492.28;4991484;28;20136;-56
2023/10/26 08:47:50;;;;;;;133.88;34.45;;;;;;;9.62;100.00;99492.53;4992926;28;20574;-59
2023/10/26 08:50:18;;;;;;;265.63;44.17;;;;;;;9.35;100.00;99441.34;4992916;28;20034;-54
2023/10/26 08:52:43;;;;;;;142.13;34.70;;;;;;;9.42;100.00;99430.50;5008019;28;20045;-58
2023/10/26 08:55:09;;;;;;;117.75;33.00;;;;;;;9.35;100.00;99402.81;5008058;28;20479;-57
2023/10/26 08:57:45;;;;;;;122.95;34.08;;;;;;;9.45;100.00;99426.84;4991285;28;20042;-59
2023/10/26 09:00:11;;;;;;;107.80;34.03;;;;;;;9.88;100.00;99489.44;4992079;28;20046;-58
2023/10/26 09:02:38;;;;;;;130.10;34.60;;;;;;;9.93;100.00;99479.53;4992586;28;20034;-55
2023/10/26 09:05:04;;;;;;;154.35;37.03;;;;;;;9.89;100.00;99487.66;5005603;28;20062;-56
2023/10/26 09:07:30;;;;;;;170.23;39.72;;;;;;;9.94;100.00;99496.16;4991071;28;20129;-58
2023/10/26 09:09:55;;;;;;;115.85;36.25;;;;;;;9.94;100.00;99477.75;4991126;28;20109;-57
2023/10/26 09:12:21;;;;;;;131.52;38.58;;;;;;;10.09;100.00;99495.38;4992245;28;20465;-57
2023/10/26 09:15:03;;;;;;;122.43;38.42;;;;;;;9.86;100.00;99420.34;4998584;28;20050;-57
2023/10/26 09:17:30;;;;;;;118.45;37.63;;;;;;;10.04;100.00;99455.34;4991708;28;20030;-57
2023/10/26 09:19:55;;;;;;;162.77;40.13;;;;;;;9.80;100.00;99417.19;4992144;28;20040;-58
2023/10/26 09:22:37;;;;;;;109.22;37.03;;;;;;;10.27;100.00;99481.31;5007274;28;20038;-57
2023/10/26 09:25:10;;;;;;;147.43;39.17;;;;;;;10.26;100.00;99471.72;4974681;28;20553;-56
2023/10/26 09:27:36;;;;;;;124.35;38.33;;;;;;;9.86;100.00;99399.31;4990999;28;20038;-57
2023/10/26 09:30:03;;;;;;;125.80;37.92;;;;;;;9.87;100.00;99393.13;4992290;28;20089;-58
2023/10/26 09:32:35;;;;;;;110.70;38.92;;;;;;;9.98;100.00;99410.97;5007228;28;20038;-58
2023/10/26 09:35:03;;;;;;;103.93;37.92;;;;;;;10.40;100.00;99455.19;4992192;28;20133;-58
2023/10/26 09:37:28;;;;;;;109.07;38.72;;;;;;;10.46;100.00;99468.03;4992055;28;20537;-57
2023/10/26 09:39:55;;;;;;;126.65;41.33;;;;;;;10.20;100.00;99419.44;4992573;28;20057;-57
2023/10/26 09:42:20;;;;;;;117.20;39.35;;;;;;;10.09;100.00;99393.72;4992539;28;20045;-57
2023/10/26 09:44:46;;;;;;;127.95;38.67;;;;;;;10.45;100.00;99454.03;4992183;28;20030;-56
2023/10/26 09:47:12;;;;;;;111.00;39.03;;;;;;;10.41;100.00;99439.34;4991855;28;20085;-55
2023/10/26 09:49:37;;;;;;;112.38;39.38;;;;;;;10.55;100.00;99451.75;4992451;28;20069;-56
2023/10/26 09:52:03;;;;;;;101.03;37.05;;;;;;;10.59;100.00;99451.53;4991219;28;20054;-56
2023/10/26 09:54:34;;;;;;;82.15;36.65;;;;;;;10.55;100.00;99443.84;4991384;28;20046;-57
2023/10/26 09:57:41;;;;;;;81.18;34.53;;;;;;;10.54;100.00;99463.19;5007644;28;20042;-58
2023/10/26 10:00:10;;;;;;;80.63;35.25;;;;;;;10.57;100.00;99427.06;4969861;28;20569;-56
2023/10/26 10:02:35;;;;;;;73.43;35.55;;;;;;;10.85;100.00;99442.19;4992183;28;20073;-57
2023/10/26 10:05:01;;;;;;;72.53;34.50;;;;;;;11.02;100.00;99434.19;4992479;28;20034;-57
2023/10/26 10:07:43;;;;;;;68.97;33.42;;;;;;;11.26;100.00;99445.97;4992471;28;20034;-56
2023/10/26 10:10:10;;;;;;;63.60;33.10;;;;;;;11.05;100.00;99377.88;4990643;28;20030;-55
2023/10/26 10:12:38;;;;;;;61.78;32.95;;;;;;;11.76;100.00;99450.13;4995756;28;20049;-58
2023/10/26 10:15:06;;;;;;;50.42;29.48;;;;;;;11.65;100.00;99382.19;4995785;28;20055;-59
2023/10/26 10:17:44;;;;;;;44.42;28.67;;;;;;;12.22;100.00;99454.34;4994760;28;20042;-60
2023/10/26 10:20:18;;;;;;;47.05;29.48;;;;;;;12.41;100.00;99459.31;4995368;28;20046;-59
2023/10/26 10:22:44;;;;;;;40.60;27.30;;;;;;;12.55;100.00;99469.06;4992411;28;20030;-59
2023/10/26 10:25:10;;;;;;;41.97;27.58;;;;;;;12.31;100.00;99434.47;4995405;28;20498;-59
2023/10/26 10:27:36;;;;;;;39.05;27.23;;;;;;;12.47;100.00;99468.66;4977763;28;20037;-58
2023/10/26 10:30:08;;;;;;;40.30;27.38;;;;;;;12.11;100.00;99416.38;4995049;28;20022;-57
2023/10/26 10:32:46;;;;;;;36.53;26.85;;;;;;;12.57;100.00;99483.00;4995166;28;20030;-57
2023/10/26 10:35:14;;;;;;;35.78;26.23;;;;;;;12.52;100.00;99475.34;4993371;28;20081;-59
2023/10/26 10:38:15;;;;;;;35.35;24.63;;;;;;;12.60;100.00;99466.97;4994183;28;20042;-58
2023/10/26 10:40:59;;;;;;;31.45;22.63;;;;;;;12.74;100.00;99451.97;4987498;28;20027;-58
2023/10/26 10:43:43;;;;;;;28.13;22.95;;;;;;;12.77;100.00;99435.06;4988240;28;20128;-59
2023/10/26 10:46:27;;;;;;;28.67;22.80;;;;;;;12.70;100.00;99381.81;4987028;28;20043;-56
2023/10/26 10:49:02;;;;;;;29.38;22.13;;;;;;;13.07;100.00;99437.56;4989808;28;20062;-58
2023/10/26 10:51:37;;;;;;;28.50;21.48;;;;;;;12.96;100.00;99444.34;4989820;28;20105;-57
2023/10/26 10:54:12;;;;;;;27.73;20.85;;;;;;;12.69;100.00;99382.75;4994932;28;20056;-56
2023/10/26 10:56:39;;;;;;;24.27;20.02;;;;;;;13.04;100.00;99432.47;4983389;28;20034;-59
2023/10/26 10:59:25;;;;;;;26.35;20.95;;;;;;;12.89;100.00;99389.41;4993982;28;20038;-58
2023/10/26 11:02:12;;;;;;;22.88;18.65;;;;;;;13.23;100.00;99420.63;5009457;28;20038;-58
2023/10/26 11:04:55;;;;;;;21.10;18.10;;;;;;;13.46;100.00;99429.69;4995099;28;20034;-59
2023/10/26 11:07:27;;;;;;;19.27;16.90;;;;;;;13.47;100.00;99424.31;4997006;28;20042;-57
2023/10/26 11:10:00;;;;;;;19.60;16.05;;;;;;;13.59;100.00;99427.94;4988742;28;20126;-60